Hlavní strana
METAR-TAF:

METAR-TAF

Letiště :

Malabo, Rovníková Guinea

zeměpisná šířka: 03-45-18N, zeměpisná délka: 08-42-31E, výška: 23 m

Aktuální stav počasí

Zpráva byla vytvořena před 54 minutami, v 02:00 UTC
Jihozápadní vítr 6 kt
Teplota 25°C
Vlhkost vzduchu 89%
Tlak 1014 hPa
Viditelnost 10 km a více
Skoro jasno ve výšce 1200 ft

METAR: FGSL 180200Z 23006KT 9999 FEW012 25/23 Q1014 NOSIG

Čas: 03:54 (02:54 UTC)

Předpověď počasí

Zpráva byla vytvořena před 3 hodinami a 54 minutami, v 23:00 UTC
Předpověď platná od 18 v 00 UTC do 19 v 06 UTC
Jihojihozápadní vítr 6 kt
Viditelnost 10 km a více
Polojasno ve výšce 1000 ft
Skoro jasno ve výšce 2000 ft, Cumulonimbus.
Dočasný
od 18 v 03 UTC do 18 v 10 UTC
Viditelnost: 4000 m
Oblačno až skoro zataženo ve výšce 800 ft
Skoro jasno ve výšce 1600 ft, Cumulonimbus.
bouřka, déšť
Dočasný
od 18 v 14 UTC do 18 v 20 UTC
Polojasno ve výšce 1200 ft

TAF: FGSL 172300Z 1800/1906 21006KT 9999 SCT010 FEW020CB TEMPO 1803/1810 4000 TSRA BKN008 FEW016CB TEMPO 1814/1820 SCT012

Stav a předpovědi počasí z více než 4 000 letišť (zprávy METAR a TAF).

Červené a žluté tečky na mapě představují dostupné meteorologické stanice.

Když kurzor umístíte na tečku, zobrazí se název stanice.

Pak kliknutím zobrazíte stav a předpověď počasí.

Chcete-li změnit mapu, kliknutím na zelené tlačítko se znaménkem +mapu přiblížíte, kliknutím na zelené tlačítko se znaménkem – mapu oddálíte a kliknutím na zelené šipky přejdete na sousední mapy.


METAR-TAF: